createdAt,value
2018-06-17T00:00:06.842Z,100538.29
2018-06-17T00:01:44.003Z,100522.41
2018-06-17T00:03:20.420Z,100559.30
2018-06-17T00:05:00.723Z,100565.47
2018-06-17T00:06:37.980Z,100553.09
2018-06-17T00:08:14.772Z,100549.91
2018-06-17T00:09:52.774Z,100473.91
2018-06-17T00:11:29.562Z,100388.04
2018-06-17T00:13:07.655Z,100387.67
2018-06-17T00:14:44.015Z,100396.95
2018-06-17T00:16:20.519Z,100325.02
2018-06-17T00:17:57.191Z,100175.39
2018-06-17T00:19:33.493Z,100123.41
2018-06-17T00:21:11.132Z,100073.79
2018-06-17T00:22:48.796Z,100186.50
2018-06-17T00:24:25.764Z,100171.81
2018-06-17T00:26:02.704Z,100174.03
2018-06-17T00:27:39.025Z,100186.91
2018-06-17T00:29:15.425Z,100147.83
2018-06-17T00:30:57.486Z,100131.03
2018-06-17T00:32:33.811Z,100133.73
2018-06-17T00:34:10.044Z,100152.28
2018-06-17T00:35:47.091Z,100251.38
2018-06-17T00:37:23.747Z,100317.00
2018-06-17T00:39:00.916Z,100382.42
2018-06-17T00:40:37.211Z,100345.02
2018-06-17T00:42:13.514Z,100292.16
2018-06-17T00:45:20.903Z,100158.95
2018-06-17T00:46:58.432Z,100041.88
2018-06-17T00:48:35.135Z,99962.56
2018-06-17T00:50:11.698Z,99926.70
2018-06-17T00:51:48.004Z,99965.66
2018-06-17T00:53:24.773Z,100070.73
2018-06-17T00:55:01.663Z,100100.82
2018-06-17T00:56:40.066Z,100091.09
2018-06-17T00:58:16.671Z,99998.06
2018-06-17T00:59:53.906Z,99967.00
2018-06-17T01:01:31.171Z,99915.99
2018-06-17T01:03:10.572Z,99894.78
2018-06-17T01:04:46.858Z,99927.17
2018-06-17T01:06:25.533Z,99958.12
2018-06-17T01:08:02.212Z,99994.49
2018-06-17T01:09:42.724Z,100072.91
2018-06-17T01:11:19.899Z,100044.94
2018-06-17T01:12:57.384Z,99940.78
2018-06-17T01:14:34.696Z,99870.87
2018-06-17T01:16:13.578Z,99953.31
2018-06-17T01:17:49.768Z,100090.69
2018-06-17T01:19:28.873Z,100136.75
2018-06-17T01:21:07.880Z,100170.94
2018-06-17T01:22:45.299Z,100142.52
2018-06-17T01:24:24.580Z,100087.60
2018-06-17T01:26:06.847Z,100041.00
2018-06-17T01:27:43.706Z,99879.23
2018-06-17T01:29:21.361Z,99810.98
2018-06-17T01:30:57.955Z,99733.52
2018-06-17T01:32:34.308Z,99689.78
2018-06-17T01:34:10.571Z,99657.55
2018-06-17T01:35:47.797Z,99661.03
2018-06-17T01:37:25.606Z,99726.02
2018-06-17T01:39:01.866Z,99785.81
2018-06-17T01:40:39.554Z,99888.03
2018-06-17T01:42:17.986Z,99794.13
2018-06-17T01:43:57.469Z,99743.73
2018-06-17T01:45:34.070Z,99758.75
2018-06-17T01:47:11.453Z,99798.06
2018-06-17T01:48:48.270Z,99767.14
2018-06-17T01:50:25.115Z,99688.83
2018-06-17T01:52:01.549Z,99684.88
2018-06-17T01:53:38.674Z,99744.13
2018-06-17T01:55:15.451Z,99712.32
2018-06-17T01:56:52.268Z,99662.38
2018-06-17T01:58:29.556Z,99613.16
2018-06-17T02:00:06.667Z,99518.56
2018-06-17T02:01:45.706Z,99556.59
2018-06-17T02:03:27.148Z,99600.84
2018-06-17T02:05:09.675Z,99530.98
2018-06-17T02:06:51.469Z,99554.46
2018-06-17T02:08:33.909Z,99531.47
2018-06-17T02:10:15.648Z,99479.23
2018-06-17T02:11:58.871Z,99504.05
2018-06-17T02:13:36.808Z,99534.07
2018-06-17T02:15:14.482Z,99609.71
2018-06-17T02:16:51.673Z,99641.47
2018-06-17T02:18:28.634Z,99642.89
2018-06-17T02:20:05.117Z,99632.71
2018-06-17T02:21:41.725Z,99737.08
2018-06-17T02:23:18.368Z,99831.42
2018-06-17T02:24:56.291Z,99740.64
2018-06-17T02:26:33.223Z,99679.99
2018-06-17T02:28:11.574Z,99731.80
2018-06-17T02:29:49.572Z,99675.16
2018-06-17T02:31:26.108Z,99649.06
2018-06-17T02:33:07.692Z,99679.20
2018-06-17T02:34:44.440Z,99649.06
2018-06-17T02:36:21.655Z,99679.20
2018-06-17T02:38:00.046Z,99830.56
2018-06-17T02:39:37.875Z,99912.03
2018-06-17T02:41:14.037Z,99973.75
2018-06-17T02:42:50.602Z,100021.12
2018-06-17T02:44:27.034Z,100049.49
2018-06-17T02:46:08.852Z,100015.33
2018-06-17T02:47:50.050Z,99983.47
2018-06-17T02:49:31.390Z,99963.52
2018-06-17T02:51:13.653Z,99909.41
2018-06-17T02:52:55.170Z,99761.45
2018-06-17T02:54:36.263Z,99679.69
2018-06-17T02:56:12.732Z,99650.89
2018-06-17T02:57:50.119Z,99702.22
2018-06-17T02:59:29.795Z,99836.91
2018-06-17T03:01:06.416Z,99790.38
2018-06-17T03:02:43.165Z,99871.91
2018-06-17T03:04:19.853Z,99865.64
2018-06-17T03:05:57.007Z,99800.00
2018-06-17T03:07:33.295Z,99795.25
2018-06-17T03:09:11.301Z,99902.00
2018-06-17T03:10:49.760Z,99980.02
2018-06-17T03:12:28.151Z,99978.27
2018-06-17T03:14:05.536Z,99988.50
2018-06-17T03:15:42.115Z,99992.91
2018-06-17T03:17:18.651Z,100007.59
2018-06-17T03:18:56.489Z,100019.45
2018-06-17T03:20:32.733Z,100025.25
2018-06-17T03:22:08.979Z,99964.95
2018-06-17T03:23:45.218Z,99939.20
2018-06-17T03:25:27.159Z,99831.59
2018-06-17T03:27:08.327Z,99891.89
2018-06-17T03:28:49.516Z,99925.99
2018-06-17T03:30:33.303Z,99798.34
2018-06-17T03:32:14.584Z,99772.63
2018-06-17T03:33:56.736Z,99681.11
2018-06-17T03:35:37.901Z,99783.32
2018-06-17T03:37:14.697Z,99888.67
2018-06-17T03:38:51.609Z,99928.22
2018-06-17T03:40:27.760Z,99915.77
2018-06-17T03:42:04.103Z,99943.25
2018-06-17T03:43:41.911Z,99956.57
2018-06-17T03:45:19.312Z,99991.20
2018-06-17T03:46:55.827Z,99990.73
2018-06-17T03:48:32.101Z,99983.67
2018-06-17T03:50:08.800Z,99996.88
2018-06-17T03:51:45.442Z,99985.80
2018-06-17T03:53:21.672Z,99977.40
2018-06-17T03:54:57.957Z,99937.09
2018-06-17T03:56:36.988Z,99972.56
2018-06-17T03:58:13.527Z,99998.31
2018-06-17T03:59:50.098Z,99987.71
2018-06-17T04:01:27.349Z,100008.46
2018-06-17T04:03:04.123Z,99854.27
2018-06-17T04:04:45.267Z,99720.61
2018-06-17T04:06:23.274Z,99744.49
2018-06-17T04:08:00.883Z,99866.71
2018-06-17T04:09:38.458Z,99950.78
2018-06-17T04:11:14.642Z,99934.00
2018-06-17T04:12:51.606Z,99888.88
2018-06-17T04:14:27.881Z,99915.88
2018-06-17T04:16:04.548Z,99833.42
2018-06-17T04:17:40.839Z,99915.48
2018-06-17T04:19:17.088Z,99851.65
2018-06-17T04:20:53.785Z,99721.00
2018-06-17T04:22:30.467Z,99690.94
2018-06-17T04:24:07.681Z,99687.85
2018-06-17T04:25:43.930Z,99708.65
2018-06-17T04:27:20.143Z,99802.50
2018-06-17T04:28:56.738Z,99907.00
2018-06-17T04:30:33.418Z,99997.95
2018-06-17T04:32:09.648Z,99957.52
2018-06-17T04:35:56.367Z,100050.61
2018-06-17T04:37:35.261Z,99909.22
2018-06-17T04:39:16.209Z,99869.88
2018-06-17T04:40:59.310Z,99825.53
2018-06-17T04:42:37.315Z,99920.32
2018-06-17T04:44:13.824Z,99938.05
2018-06-17T04:45:50.659Z,99886.73
2018-06-17T04:47:27.441Z,99921.16
2018-06-17T04:49:04.331Z,99890.22
2018-06-17T04:50:40.826Z,100001.01
2018-06-17T04:52:17.452Z,99955.30
2018-06-17T04:53:54.109Z,100023.58
2018-06-17T04:55:31.487Z,100096.84
2018-06-17T04:57:07.985Z,100113.64
2018-06-17T04:58:44.182Z,100158.42
2018-06-17T05:00:25.348Z,100173.48
2018-06-17T05:02:02.849Z,100030.25
2018-06-17T05:03:39.127Z,100018.30
2018-06-17T05:05:15.520Z,100101.25
2018-06-17T05:06:52.805Z,100144.73
2018-06-17T05:08:29.447Z,100153.59
2018-06-17T05:10:06.743Z,100210.49
2018-06-17T05:11:43.692Z,100293.09
2018-06-17T05:13:20.784Z,100419.71
2018-06-17T05:14:57.913Z,100458.77
2018-06-17T05:16:34.261Z,100546.45
2018-06-17T05:18:11.543Z,100588.25
2018-06-17T05:19:47.944Z,100456.55
2018-06-17T05:21:24.527Z,100518.84
2018-06-17T05:23:00.740Z,100564.64
2018-06-17T05:24:37.183Z,100660.27
2018-06-17T05:26:13.935Z,100690.18
2018-06-17T05:27:51.405Z,100859.84
2018-06-17T05:29:27.634Z,100927.59
2018-06-17T05:31:04.096Z,101003.45
2018-06-17T05:32:40.291Z,100825.12
2018-06-17T05:34:17.271Z,100873.23
2018-06-17T05:35:53.605Z,100853.23
2018-06-17T05:37:29.843Z,100923.64
2018-06-17T05:39:11.113Z,100892.89
2018-06-17T05:40:47.853Z,100858.13
2018-06-17T05:42:24.074Z,100848.29
2018-06-17T05:44:00.253Z,100843.90
2018-06-17T05:45:36.559Z,100799.81
2018-06-17T05:47:13.242Z,100781.41
2018-06-17T05:48:49.546Z,100733.36
2018-06-17T05:50:25.828Z,100825.60
2018-06-17T05:52:02.502Z,100887.95
2018-06-17T05:53:40.815Z,100953.48
2018-06-17T05:55:17.024Z,100936.53
2018-06-17T05:56:53.938Z,100883.96
2018-06-17T05:58:30.322Z,101020.41
2018-06-17T06:00:07.771Z,101071.73
2018-06-17T06:01:45.548Z,101013.23
2018-06-17T06:03:21.736Z,100933.89
2018-06-17T06:04:58.218Z,100911.20
2018-06-17T06:06:35.945Z,100902.30
2018-06-17T06:08:12.257Z,100842.06
2018-06-17T06:09:48.774Z,100923.23
2018-06-17T06:11:25.106Z,101024.88
2018-06-17T06:13:02.091Z,101033.78
2018-06-17T06:14:38.371Z,100959.30
2018-06-17T06:16:14.592Z,100927.59
2018-06-17T06:17:51.062Z,100898.31
2018-06-17T06:19:27.710Z,100901.82
2018-06-17T06:21:04.297Z,100902.19
2018-06-17T06:22:43.239Z,100888.83
2018-06-17T06:24:19.538Z,100816.20
2018-06-17T06:25:56.742Z,100780.94
2018-06-17T06:27:33.755Z,100770.77
2018-06-17T06:29:10.120Z,100745.79
2018-06-17T06:30:46.773Z,100697.23
2018-06-17T06:32:23.628Z,100647.01
2018-06-17T06:34:00.099Z,100628.77
2018-06-17T06:35:36.431Z,100687.95
2018-06-17T06:37:12.634Z,100719.91
2018-06-17T06:38:49.235Z,100806.87
2018-06-17T06:40:25.518Z,100848.29
2018-06-17T06:42:01.714Z,100958.34
2018-06-17T06:43:37.983Z,101074.77
2018-06-17T06:45:20.532Z,101156.38
2018-06-17T06:46:57.340Z,101272.97
2018-06-17T06:48:34.245Z,101314.05
2018-06-17T06:50:10.541Z,101221.59
2018-06-17T06:51:47.185Z,101206.82
2018-06-17T06:53:24.234Z,101158.69
2018-06-17T06:55:00.566Z,101130.17
2018-06-17T06:56:38.718Z,101146.12
2018-06-17T06:58:16.331Z,101178.73
2018-06-17T06:59:52.621Z,101210.01
2018-06-17T07:01:46.906Z,101200.11
2018-06-17T07:03:39.928Z,101189.44
2018-06-17T07:05:32.607Z,101225.16
2018-06-17T07:07:25.268Z,101273.85
2018-06-17T07:11:22.197Z,101322.53
2018-06-17T07:12:58.467Z,101141.24
2018-06-17T07:14:35.576Z,101009.58
2018-06-17T07:16:29.435Z,100884.77
2018-06-17T07:18:23.448Z,100770.30
2018-06-17T07:20:00.056Z,100773.77
2018-06-17T07:21:36.057Z,100733.61
2018-06-17T07:23:12.007Z,100728.83
2018-06-17T07:24:47.854Z,100742.58
2018-06-17T07:26:43.190Z,100714.02
2018-06-17T07:28:50.629Z,100643.31
2018-06-17T07:30:28.478Z,100551.28
2018-06-17T07:32:06.565Z,100620.58
2018-06-17T07:33:44.619Z,100670.91
2018-06-17T07:35:21.037Z,100674.50
2018-06-17T07:36:57.262Z,100683.81
2018-06-17T07:38:34.570Z,100736.69
2018-06-17T07:40:32.103Z,100731.75
2018-06-17T07:42:11.768Z,100756.76
2018-06-17T07:43:51.296Z,100698.03
2018-06-17T07:45:30.795Z,100733.50
2018-06-17T07:47:13.586Z,100706.48
2018-06-17T07:50:04.152Z,100704.66
2018-06-17T07:51:58.622Z,100720.23
2018-06-17T07:53:35.547Z,100787.38
2018-06-17T07:55:11.576Z,100774.97
2018-06-17T07:56:47.430Z,100766.53
2018-06-17T07:58:23.439Z,100780.28
2018-06-17T08:00:01.481Z,100732.63
2018-06-17T08:01:38.076Z,100715.30
2018-06-17T08:03:15.845Z,100715.70
2018-06-17T08:04:55.840Z,100715.70
2018-06-17T08:06:37.541Z,100644.52
2018-06-17T08:08:18.632Z,100607.13
2018-06-17T08:09:58.517Z,100582.66
2018-06-17T08:11:39.485Z,100551.12
2018-06-17T08:13:15.928Z,100542.61
2018-06-17T08:14:53.866Z,100558.17
2018-06-17T08:16:32.679Z,100595.07
2018-06-17T08:18:09.259Z,100616.05
2018-06-17T08:19:45.357Z,100638.16
2018-06-17T08:21:23.023Z,100670.69
2018-06-17T08:23:00.590Z,100636.87
2018-06-17T08:24:37.714Z,100677.81
2018-06-17T08:26:15.555Z,100599.53
2018-06-17T08:27:53.958Z,100640.46
2018-06-17T08:29:30.920Z,100660.49
2018-06-17T08:31:07.625Z,100699.13
2018-06-17T08:32:47.948Z,100693.35
2018-06-17T08:34:27.182Z,100616.37
2018-06-17T08:36:03.231Z,100700.01
2018-06-17T08:37:41.531Z,100768.98
2018-06-17T08:39:20.011Z,100871.93
2018-06-17T08:40:58.774Z,100884.44
2018-06-17T08:42:34.709Z,100933.02
2018-06-17T08:44:13.898Z,100954.91
2018-06-17T08:45:51.216Z,101015.15
2018-06-17T08:47:27.481Z,101004.78
2018-06-17T08:49:04.413Z,100924.09
2018-06-17T08:50:42.686Z,100875.11
2018-06-17T08:52:18.700Z,100772.56
2018-06-17T08:54:04.282Z,100788.66
2018-06-17T08:55:41.503Z,100840.75
2018-06-17T08:57:17.941Z,100879.10
2018-06-17T08:58:54.710Z,100894.73
2018-06-17T09:00:32.431Z,100872.41
2018-06-17T09:02:12.593Z,100920.50
2018-06-17T09:03:51.307Z,100930.70
2018-06-17T09:05:33.471Z,100895.02
2018-06-17T09:07:10.647Z,100850.92
2018-06-17T09:08:49.513Z,100786.72
2018-06-17T09:10:26.775Z,100740.05
2018-06-17T09:12:02.718Z,100677.59
2018-06-17T09:13:40.523Z,100702.16
2018-06-17T09:15:20.219Z,100740.89
2018-06-17T09:17:01.767Z,100726.19
2018-06-17T09:18:38.255Z,100736.83
2018-06-17T09:20:15.315Z,100773.84
2018-06-17T09:21:51.268Z,100896.38
2018-06-17T09:23:29.665Z,100933.34
2018-06-17T09:25:07.824Z,100951.17
2018-06-17T09:26:46.227Z,100918.59
2018-06-17T09:28:22.485Z,100941.36
2018-06-17T09:30:00.066Z,100954.29
2018-06-17T09:31:40.560Z,100812.94
2018-06-17T09:33:17.381Z,100878.95
2018-06-17T09:34:53.459Z,100908.78
2018-06-17T09:36:33.798Z,100979.22
2018-06-17T09:38:12.620Z,100975.64
2018-06-17T09:39:53.898Z,101045.26
2018-06-17T09:41:31.682Z,101087.65
2018-06-17T09:43:12.001Z,101078.75
2018-06-17T09:44:50.234Z,101070.61
2018-06-17T09:46:28.076Z,101009.08
2018-06-17T09:48:05.630Z,100935.55
2018-06-17T09:49:46.607Z,100853.92
2018-06-17T09:51:24.102Z,100841.92
2018-06-17T09:53:01.584Z,100839.69
2018-06-17T09:54:38.465Z,100831.34
2018-06-17T09:56:16.704Z,100894.95
2018-06-17T09:57:52.701Z,100829.91
2018-06-17T09:59:29.054Z,100810.71
2018-06-17T10:01:05.886Z,100742.09
2018-06-17T10:02:43.923Z,100745.60
2018-06-17T10:04:19.949Z,100763.02
2018-06-17T10:05:56.465Z,100876.61
2018-06-17T10:07:33.957Z,100920.75
2018-06-17T10:09:13.515Z,100894.87
2018-06-17T10:10:57.255Z,100873.43
2018-06-17T10:12:34.679Z,100770.18
2018-06-17T10:14:14.936Z,100585.82
2018-06-17T10:15:53.814Z,100539.56
2018-06-17T10:19:13.244Z,100586.77
2018-06-17T10:20:52.377Z,100612.53
2018-06-17T10:22:30.514Z,100680.99
2018-06-17T10:24:10.616Z,100767.77
2018-06-17T10:25:47.446Z,100845.33
2018-06-17T10:27:27.458Z,100982.63
2018-06-17T10:29:05.331Z,101037.06
2018-06-17T10:30:44.454Z,101016.58
2018-06-17T10:32:24.476Z,101154.42
2018-06-17T10:34:01.753Z,101158.42
2018-06-17T10:35:38.234Z,101092.86
2018-06-17T10:37:15.052Z,100991.94
2018-06-17T10:38:51.814Z,100989.34
2018-06-17T10:40:29.208Z,101007.24
2018-06-17T10:42:06.560Z,101068.67
2018-06-17T10:43:45.764Z,101024.53
2018-06-17T10:45:25.670Z,100866.29
2018-06-17T10:47:02.804Z,100816.37
2018-06-17T10:48:40.613Z,100751.78
2018-06-17T10:50:18.258Z,100745.49
2018-06-17T10:51:55.525Z,100797.17
2018-06-17T10:53:34.473Z,100823.84
2018-06-17T10:55:13.978Z,100907.20
2018-06-17T10:56:51.766Z,100996.33
2018-06-17T10:58:29.997Z,100975.38
2018-06-17T11:00:10.639Z,100883.64
2018-06-17T11:01:47.204Z,100776.61
2018-06-17T11:03:24.877Z,100807.85
2018-06-17T11:05:02.399Z,100841.27
2018-06-17T11:06:39.804Z,100974.91
2018-06-17T11:08:17.525Z,100953.08
2018-06-17T11:09:54.595Z,100941.44
2018-06-17T11:11:32.400Z,100915.16
2018-06-17T11:13:12.747Z,100996.33
2018-06-17T11:14:50.496Z,101028.52
2018-06-17T11:16:28.081Z,101102.50
2018-06-17T11:18:04.752Z,101167.66
2018-06-17T11:19:44.575Z,101069.41
2018-06-17T11:21:22.570Z,101071.72
2018-06-17T11:22:59.843Z,101094.91
2018-06-17T11:24:36.291Z,101007.02
2018-06-17T11:26:13.612Z,101015.05
2018-06-17T11:27:53.493Z,101153.41
2018-06-17T11:29:30.563Z,101240.41
2018-06-17T11:31:08.527Z,101191.27
2018-06-17T11:32:45.486Z,101169.83
2018-06-17T11:34:24.587Z,101144.39
2018-06-17T11:36:05.180Z,101180.60
2018-06-17T11:37:45.103Z,101093.01
2018-06-17T11:39:22.280Z,101024.86
2018-06-17T11:41:00.207Z,100969.96
2018-06-17T11:42:37.309Z,100989.55
2018-06-17T11:44:14.266Z,100995.30
2018-06-17T11:45:53.065Z,101087.26
2018-06-17T11:47:30.383Z,101173.42
2018-06-17T11:49:07.211Z,101264.91
2018-06-17T11:50:44.483Z,101272.88
2018-06-17T11:52:21.735Z,101317.18
2018-06-17T11:54:02.873Z,101402.06
2018-06-17T11:55:40.092Z,101347.53
2018-06-17T11:57:16.893Z,101261.80
2018-06-17T11:58:55.199Z,101183.14
2018-06-17T12:00:31.747Z,101129.14
2018-06-17T12:02:09.264Z,101152.82
2018-06-17T12:03:47.593Z,101170.59
2018-06-17T12:05:23.999Z,101146.52
2018-06-17T12:07:00.335Z,101131.78
2018-06-17T12:08:37.357Z,101104.59
2018-06-17T12:10:13.786Z,101018.89
2018-06-17T12:11:50.143Z,100986.30
2018-06-17T12:13:27.292Z,100906.08
2018-06-17T12:15:05.497Z,100759.97
2018-06-17T12:16:42.600Z,100788.90
2018-06-17T12:18:19.899Z,100842.77
2018-06-17T12:19:58.050Z,100871.27
2018-06-17T12:21:36.186Z,100665.44
2018-06-17T12:23:15.172Z,100692.68
2018-06-17T12:24:52.882Z,100708.66
2018-06-17T12:26:31.440Z,100774.56
2018-06-17T12:28:11.820Z,100781.18
2018-06-17T12:29:53.872Z,100831.92
2018-06-17T12:31:32.144Z,100877.89
2018-06-17T12:33:08.497Z,100885.43
2018-06-17T12:34:48.496Z,100913.55
2018-06-17T12:36:28.295Z,100899.30
2018-06-17T12:38:13.550Z,100858.67
2018-06-17T12:45:53.756Z,100874.30
2018-06-17T12:47:32.537Z,100713.33
2018-06-17T12:49:10.358Z,100634.51
2018-06-17T12:50:49.910Z,100490.48
2018-06-17T12:52:26.580Z,100400.63
2018-06-17T12:54:03.975Z,100421.11
2018-06-17T12:55:40.336Z,100490.48
2018-06-17T12:57:20.698Z,100562.08
2018-06-17T12:59:02.428Z,100606.52
2018-06-17T13:00:39.933Z,100702.29
2018-06-17T13:02:16.442Z,100589.12
2018-06-17T13:03:55.591Z,100506.84
2018-06-17T13:05:37.986Z,100471.34
2018-06-17T13:07:14.335Z,100492.63
2018-06-17T13:08:51.250Z,100570.05
2018-06-17T13:10:27.799Z,100688.36
2018-06-17T13:12:05.660Z,100778.28
2018-06-17T13:13:48.435Z,100829.07
2018-06-17T13:15:26.646Z,100921.74
2018-06-17T13:17:05.147Z,100877.63
2018-06-17T13:20:25.821Z,100908.86
2018-06-17T13:22:03.584Z,100978.86
2018-06-17T13:23:42.392Z,101010.03
2018-06-17T13:25:23.822Z,101005.16
2018-06-17T13:27:00.732Z,100991.28
2018-06-17T13:28:37.683Z,100930.20
2018-06-17T13:30:18.692Z,101007.33
2018-06-17T13:31:55.904Z,101045.23
2018-06-17T13:33:35.197Z,101042.05
2018-06-17T13:35:15.222Z,101014.88
2018-06-17T13:36:54.596Z,100975.20
2018-06-17T13:38:31.420Z,101010.40
2018-06-17T13:40:08.366Z,101014.39
2018-06-17T13:41:46.437Z,101121.09
2018-06-17T13:43:26.943Z,101167.90
2018-06-17T13:45:04.296Z,101222.38
2018-06-17T13:46:40.752Z,101121.97
2018-06-17T13:48:22.229Z,101014.39
2018-06-17T13:50:03.538Z,100952.42
2018-06-17T13:51:40.563Z,100892.67
2018-06-17T13:53:19.454Z,100819.59
2018-06-17T13:54:57.215Z,100852.08
2018-06-17T13:56:36.575Z,100818.71
2018-06-17T13:58:13.661Z,100822.70
2018-06-17T13:59:58.381Z,100810.66
2018-06-17T14:01:43.464Z,100849.84
2018-06-17T14:03:26.225Z,100887.73
2018-06-17T14:05:07.412Z,100774.04
2018-06-17T14:06:59.755Z,100682.28
2018-06-17T14:08:41.737Z,100674.23
2018-06-17T14:12:17.555Z,100856.03
2018-06-17T14:13:59.707Z,100960.30
2018-06-17T14:15:37.615Z,100933.53
2018-06-17T14:17:17.517Z,100952.24
2018-06-17T14:19:03.970Z,101043.19
2018-06-17T14:20:43.543Z,100962.53
2018-06-17T14:22:26.411Z,100892.13
2018-06-17T14:24:07.720Z,100725.87
2018-06-17T14:25:48.588Z,100683.55
2018-06-17T14:27:26.540Z,100797.59
2018-06-17T14:29:06.706Z,100880.48
2018-06-17T14:30:45.488Z,101000.36
2018-06-17T14:32:23.924Z,101121.23
2018-06-17T14:34:02.671Z,101124.83
2018-06-17T14:35:40.283Z,101168.05
2018-06-17T14:37:20.159Z,101207.77
2018-06-17T14:38:59.487Z,101102.51
2018-06-17T14:40:40.455Z,101032.45
2018-06-17T14:42:24.596Z,100972.64
2018-06-17T14:44:06.875Z,100882.05
2018-06-17T14:47:55.392Z,100874.52
2018-06-17T14:49:37.440Z,100844.17
2018-06-17T14:51:22.310Z,100856.66
2018-06-17T14:53:07.211Z,100884.21
2018-06-17T14:54:50.051Z,100871.80
2018-06-17T14:56:41.245Z,100877.04
2018-06-17T14:58:20.563Z,100924.85
2018-06-17T14:59:58.323Z,100963.55
2018-06-17T15:01:37.762Z,100922.51
2018-06-17T15:03:15.127Z,100771.39
2018-06-17T15:04:56.993Z,100717.55
2018-06-17T15:06:33.370Z,100746.96
2018-06-17T15:08:09.715Z,100815.99
2018-06-17T15:09:46.081Z,100770.52
2018-06-17T15:11:24.552Z,100677.40
2018-06-17T15:13:01.696Z,100703.77
2018-06-17T15:16:15.317Z,100788.77
2018-06-17T15:17:55.423Z,100834.14
2018-06-17T15:19:33.346Z,100921.95
2018-06-17T15:21:10.609Z,100998.68
2018-06-17T15:22:48.427Z,100949.20
2018-06-17T15:24:26.269Z,100887.14
2018-06-17T15:26:02.699Z,100783.35
2018-06-17T15:27:39.232Z,100746.41
2018-06-17T15:29:18.119Z,100722.86
2018-06-17T15:31:00.996Z,100771.31
2018-06-17T15:32:44.148Z,100727.16
2018-06-17T15:34:26.250Z,100751.27
2018-06-17T15:36:07.864Z,100761.44
2018-06-17T15:37:50.155Z,100716.00
2018-06-17T15:39:33.355Z,100716.00
2018-06-17T15:41:16.897Z,100678.67
2018-06-17T15:42:55.227Z,100762.31
2018-06-17T15:44:33.177Z,100629.58
2018-06-17T15:46:11.439Z,100648.84
2018-06-17T15:47:52.304Z,100704.38
2018-06-17T15:49:33.520Z,100693.66
2018-06-17T15:51:13.527Z,100704.38
2018-06-17T15:52:52.632Z,100840.65
2018-06-17T15:54:37.507Z,100860.23
2018-06-17T15:56:16.676Z,100901.70
2018-06-17T15:57:55.465Z,100949.81
2018-06-17T15:59:34.593Z,100987.28
2018-06-17T16:01:12.524Z,100944.40
2018-06-17T16:02:51.381Z,100889.62
2018-06-17T16:04:30.532Z,100859.27
2018-06-17T16:06:08.800Z,100882.45
2018-06-17T16:07:51.297Z,100898.05
2018-06-17T16:09:31.450Z,100817.77
2018-06-17T16:11:08.625Z,100805.77
2018-06-17T16:12:57.782Z,100742.95
2018-06-17T16:14:42.196Z,100636.19
2018-06-17T16:16:24.925Z,100659.33
2018-06-17T16:18:11.705Z,100649.93
2018-06-17T16:20:02.135Z,100706.45
2018-06-17T16:21:42.509Z,100765.63
2018-06-17T16:23:23.612Z,100745.59
2018-06-17T16:25:01.069Z,100740.25
2018-06-17T16:26:41.516Z,100709.92
2018-06-17T16:28:20.908Z,100698.80
2018-06-17T16:30:06.116Z,100664.08
2018-06-17T16:31:56.679Z,100684.18
2018-06-17T16:33:38.579Z,100788.72
2018-06-17T16:35:17.684Z,100823.99
2018-06-17T16:37:07.244Z,100769.14
2018-06-17T16:38:45.733Z,100713.03
2018-06-17T16:40:24.031Z,100621.85
2018-06-17T16:42:02.978Z,100610.63
2018-06-17T16:43:39.796Z,100490.52
2018-06-17T16:45:19.600Z,100507.83
2018-06-17T16:46:58.281Z,100562.61
2018-06-17T16:48:36.240Z,100546.16
2018-06-17T16:50:15.997Z,100539.00
2018-06-17T16:52:00.549Z,100575.42
2018-06-17T16:53:43.289Z,100561.65
2018-06-17T16:55:33.368Z,100587.89
2018-06-17T16:57:14.586Z,100632.81
2018-06-17T16:58:59.309Z,100686.22
2018-06-17T17:00:38.263Z,100605.61
2018-06-17T17:02:15.627Z,100511.25
2018-06-17T17:03:52.077Z,100444.20
2018-06-17T17:05:30.665Z,100421.56
2018-06-17T17:07:07.894Z,100383.34
2018-06-17T17:08:44.199Z,100355.81
2018-06-17T17:10:22.584Z,100374.39
2018-06-17T17:12:00.443Z,100407.73
2018-06-17T17:13:37.180Z,100389.94
2018-06-17T17:15:14.880Z,100496.17
2018-06-17T17:16:52.909Z,100476.23
2018-06-17T17:18:31.597Z,100548.70
2018-06-17T17:20:10.156Z,100579.37
2018-06-17T17:21:50.070Z,100619.39
2018-06-17T17:23:28.294Z,100598.92
2018-06-17T17:25:05.886Z,100650.49
2018-06-17T17:26:43.776Z,100683.03
2018-06-17T17:28:29.791Z,100595.73
2018-06-17T17:30:06.951Z,100592.27
2018-06-17T17:31:51.886Z,100628.67
2018-06-17T17:33:34.258Z,100677.22
2018-06-17T17:35:17.268Z,100754.64
2018-06-17T17:36:58.995Z,100755.13
2018-06-17T17:38:40.856Z,100797.86
2018-06-17T17:40:23.229Z,100851.77
2018-06-17T17:42:01.762Z,100810.26
2018-06-17T17:43:39.994Z,100699.49
2018-06-17T17:45:30.508Z,100722.09
2018-06-17T17:47:14.100Z,100785.45
2018-06-17T17:48:53.485Z,100780.91
2018-06-17T17:50:30.577Z,100752.41
2018-06-17T17:52:06.992Z,100792.03
2018-06-17T17:53:44.786Z,100823.17
2018-06-17T17:55:21.685Z,100855.75
2018-06-17T17:56:58.013Z,100886.46
2018-06-17T17:58:35.652Z,100918.09
2018-06-17T18:00:16.222Z,100900.81
2018-06-17T18:01:55.122Z,100911.87
2018-06-17T18:03:33.656Z,100881.63
2018-06-17T18:05:12.219Z,100836.05
2018-06-17T18:06:55.776Z,100792.84
2018-06-17T18:08:33.669Z,100575.70
2018-06-17T18:10:10.840Z,100424.47
2018-06-17T18:11:49.487Z,100371.69
2018-06-17T18:13:27.841Z,100533.03
2018-06-17T18:15:12.580Z,100599.64
2018-06-17T18:16:54.557Z,100594.70
2018-06-17T18:18:33.157Z,100581.44
2018-06-17T18:20:11.980Z,100584.55
2018-06-17T18:23:45.543Z,100581.44
2018-06-17T18:25:29.312Z,100587.14
2018-06-17T18:27:18.465Z,100690.41
2018-06-17T18:29:01.934Z,100711.81
2018-06-17T18:32:23.613Z,100755.81
2018-06-17T18:34:04.901Z,100724.61
2018-06-17T18:35:49.889Z,100608.45
2018-06-17T18:37:28.660Z,100625.41
2018-06-17T18:39:06.998Z,100668.55
2018-06-17T18:40:45.282Z,100627.64
2018-06-17T18:42:25.653Z,100631.59
2018-06-17T18:44:04.843Z,100555.89
2018-06-17T18:45:42.219Z,100540.80
2018-06-17T18:47:19.204Z,100491.84
2018-06-17T18:48:56.709Z,100534.98
2018-06-17T18:50:35.622Z,100576.91
2018-06-17T18:52:12.782Z,100594.23
2018-06-17T18:53:49.268Z,100634.25
2018-06-17T18:55:26.942Z,100628.99
2018-06-17T18:57:05.659Z,100589.29
2018-06-17T18:58:44.306Z,100589.29
2018-06-17T19:00:32.576Z,100616.02
2018-06-17T19:02:10.276Z,100600.80
2018-06-17T19:03:47.965Z,100667.19
2018-06-17T19:05:25.710Z,100717.47
2018-06-17T19:07:03.550Z,100702.33
2018-06-17T19:08:48.658Z,100700.10
2018-06-17T19:10:30.096Z,100655.64
2018-06-17T19:12:11.847Z,100724.61
2018-06-17T19:14:02.284Z,100757.09
2018-06-17T19:15:45.762Z,100715.13
2018-06-17T19:18:34.470Z,100614.18